Time;durP1;ratioP1;P1;durP2;ratioP2;P2;SDS_P1;SDS_P2;PMS_P1;PMS_P2;Temp;Humidity;BMP_temperature;BMP_pressure;BME280_temperature;BME280_humidity;BME280_pressure;Samples;Min_cycle;Max_cycle;Signal;HPM_P1;HPM_P2
2023/01/18 00:01:06;;;;;;;;;29.67;29.67;;;;;-146.37;100.00;59337.28;5035238;28;29394;-81
2023/01/18 00:03:33;;;;;;;;;26.67;24.67;;;;;-146.37;100.00;59337.28;5037876;28;28568;-81
2023/01/18 00:06:03;;;;;;;;;27.00;22.33;;;;;-146.37;100.00;59337.28;5036591;28;28418;-81
2023/01/18 00:08:30;;;;;;;;;30.67;25.67;;;;;-146.37;100.00;59337.28;5036648;28;30038;-81
2023/01/18 00:11:07;;;;;;;;;29.67;27.33;;;;;-146.37;100.00;59337.28;5035845;28;28792;-80
2023/01/18 00:13:32;;;;;;;;;26.67;24.67;;;;;-146.37;100.00;59337.28;5020385;28;28572;-81
2023/01/18 00:16:16;;;;;;;;;32.67;27.67;;;;;-146.37;100.00;59337.28;5020213;28;27952;-81
2023/01/18 00:18:42;;;;;;;;;31.67;28.33;;;;;-146.37;100.00;59337.28;5019564;28;29121;-80
2023/01/18 00:21:10;;;;;;;;;31.00;23.00;;;;;-146.37;100.00;59337.28;5037660;28;27903;-81
2023/01/18 00:23:36;;;;;;;;;26.33;25.67;;;;;-146.37;100.00;59337.28;5037541;28;28608;-81
2023/01/18 00:26:05;;;;;;;;;32.33;28.00;;;;;-146.37;100.00;59337.28;5035931;28;28525;-81
2023/01/18 00:28:31;;;;;;;;;29.67;23.00;;;;;-146.37;100.00;59337.28;5035155;28;29812;-81
2023/01/18 00:30:57;;;;;;;;;28.00;27.00;;;;;-146.37;100.00;59337.28;5036205;28;28926;-81
2023/01/18 00:33:23;;;;;;;;;33.00;27.67;;;;;-146.37;100.00;59337.28;5021096;28;28709;-80
2023/01/18 00:36:00;;;;;;;;;35.00;31.00;;;;;-146.37;100.00;59337.28;5020929;28;28496;-80
2023/01/18 00:38:26;;;;;;;;;36.33;34.33;;;;;-146.37;100.00;59337.28;5019656;28;30657;-80
2023/01/18 00:40:53;;;;;;;;;31.67;28.67;;;;;-146.37;100.00;59337.28;5020033;28;29718;-80
2023/01/18 00:46:13;;;;;;;;;28.67;28.67;;;;;-146.37;100.00;59337.28;5038427;28;28422;-83
2023/01/18 00:48:40;;;;;;;;;29.67;26.33;;;;;-146.37;100.00;59337.28;5038018;28;28346;-80
2023/01/18 00:51:12;;;;;;;;;1.00;0.00;;;;;-146.37;100.00;59337.28;5035815;28;28828;-83
2023/01/18 00:53:39;;;;;;;;;36.00;26.67;;;;;-146.37;100.00;59337.28;5036054;28;27887;-83
2023/01/18 00:56:07;;;;;;;;;36.00;31.00;;;;;-146.37;100.00;59337.28;5038051;28;27899;-82
2023/01/18 00:58:33;;;;;;;;;22.00;20.00;;;;;-146.37;100.00;59337.28;5020554;28;30759;-82
2023/01/18 01:00:58;;;;;;;;;25.00;23.67;;;;;-146.37;100.00;59337.28;5042077;28;28816;-82
2023/01/18 01:03:23;;;;;;;;;17.33;17.33;;;;;-146.37;100.00;59337.28;5044143;28;28552;-83
2023/01/18 01:08:33;;;;;;;;;23.67;23.67;;;;;-146.37;100.00;59337.28;5045858;28;28424;-83
2023/01/18 01:11:11;;;;;;;;;34.33;28.33;;;;;-146.37;100.00;59337.28;5045832;28;28924;-82
2023/01/18 01:27:54;;;;;;;;;29.67;25.67;;;;;-146.37;100.00;59337.28;5043321;28;28391;-82
2023/01/18 01:30:19;;;;;;;;;30.33;27.00;;;;;-146.37;100.00;59337.28;5044112;28;28404;-82
2023/01/18 01:32:44;;;;;;;;;29.00;25.00;;;;;-146.37;100.00;59337.28;5043978;28;28343;-82
2023/01/18 01:35:10;;;;;;;;;33.33;27.33;;;;;-146.37;100.00;59337.28;5043738;28;28493;-82
2023/01/18 01:38:31;;;;;;;;;32.33;26.00;;;;;-146.37;100.00;59337.28;5044559;28;27872;-81
2023/01/18 01:41:05;;;;;;;;;25.00;19.67;;;;;-146.37;100.00;59337.28;5043459;28;28095;-82
2023/01/18 01:43:41;;;;;;;;;27.00;25.67;;;;;-146.37;100.00;59337.28;5043038;28;28747;-82
2023/01/18 01:46:40;;;;;;;;;35.33;30.67;;;;;-146.37;100.00;59337.28;5043112;28;28479;-82
2023/01/18 01:49:14;;;;;;;;;26.33;22.33;;;;;-146.37;100.00;59337.28;5027134;28;28440;-81
2023/01/18 01:51:42;;;;;;;;;21.00;21.00;;;;;-146.37;100.00;59337.28;5023901;28;30020;-81
2023/01/18 01:54:16;;;;;;;;;27.00;25.67;;;;;-146.37;100.00;59337.28;5024897;28;29685;-82
2023/01/18 01:56:45;;;;;;;;;23.33;22.00;;;;;-146.37;100.00;59337.28;5025110;28;27864;-82
2023/01/18 01:59:10;;;;;;;;;28.33;24.00;;;;;-146.37;100.00;59337.28;5044364;28;28490;-82
2023/01/18 02:01:39;;;;;;;;;20.67;17.00;;;;;-146.37;100.00;59337.28;5025366;28;29847;-82
2023/01/18 02:04:04;;;;;;;;;26.67;21.33;;;;;-146.37;100.00;59337.28;5043606;28;28395;-82
2023/01/18 02:06:35;;;;;;;;;23.33;21.67;;;;;-146.37;100.00;59337.28;5043672;28;28395;-82
2023/01/18 02:09:04;;;;;;;;;23.67;22.33;;;;;-146.37;100.00;59337.28;5044161;28;28866;-82
2023/01/18 02:11:30;;;;;;;;;26.33;21.33;;;;;-146.37;100.00;59337.28;5043043;28;28264;-82
2023/01/18 02:14:00;;;;;;;;;22.00;20.67;;;;;-146.37;100.00;59337.28;5040681;28;28947;-82
2023/01/18 02:16:57;;;;;;;;;28.33;23.33;;;;;-146.37;100.00;59337.28;5039548;28;28924;-82
2023/01/18 02:19:56;;;;;;;;;22.33;19.00;;;;;-146.37;100.00;59337.28;5024298;28;28472;-82
2023/01/18 02:22:39;;;;;;;;;27.00;24.00;;;;;-146.37;100.00;59337.28;5041161;28;28716;-82
2023/01/18 02:25:23;;;;;;;;;21.33;21.33;;;;;-146.37;100.00;59337.28;5022982;28;28804;-82
2023/01/18 02:28:13;;;;;;;;;24.00;22.67;;;;;-146.37;100.00;59337.28;5023199;28;28443;-82
2023/01/18 02:30:57;;;;;;;;;29.33;27.33;;;;;-146.37;100.00;59337.28;5041078;28;28868;-82
2023/01/18 02:33:42;;;;;;;;;26.00;23.00;;;;;-146.37;100.00;59337.28;5022469;28;30773;-82
2023/01/18 02:36:16;;;;;;;;;25.00;24.00;;;;;-146.37;100.00;59337.28;5039469;28;28519;-83
2023/01/18 02:38:44;;;;;;;;;22.00;22.00;;;;;-146.37;100.00;59337.28;5021558;28;27939;-83
2023/01/18 02:41:13;;;;;;;;;23.67;23.00;;;;;-146.37;100.00;59337.28;5039529;28;28610;-83
2023/01/18 02:46:29;;;;;;;;;24.00;24.00;;;;;-146.37;100.00;59337.28;5039198;28;27827;-82
2023/01/18 02:48:57;;;;;;;;;23.00;20.67;;;;;-146.37;100.00;59337.28;5020832;28;27911;-82
2023/01/18 02:51:23;;;;;;;;;29.00;23.00;;;;;-146.37;100.00;59337.28;5039664;28;28485;-83
2023/01/18 02:53:50;;;;;;;;;23.67;21.00;;;;;-146.37;100.00;59337.28;5039265;28;28858;-82
2023/01/18 02:56:17;;;;;;;;;26.67;21.00;;;;;-146.37;100.00;59337.28;5038883;28;27784;-82
2023/01/18 02:58:50;;;;;;;;;27.67;23.33;;;;;-146.37;100.00;59337.28;5021159;28;27939;-83
2023/01/18 03:01:38;;;;;;;;;24.00;24.00;;;;;-146.37;100.00;59337.28;5021847;28;28625;-82
2023/01/18 03:04:11;;;;;;;;;27.00;25.00;;;;;-146.37;100.00;59337.28;5040286;28;28442;-82
2023/01/18 03:06:43;;;;;;;;;29.67;26.00;;;;;-146.37;100.00;59337.28;5040336;28;28583;-82
2023/01/18 03:09:08;;;;;;;;;28.33;22.00;;;;;-146.37;100.00;59337.28;5039224;28;28501;-82
2023/01/18 03:11:55;;;;;;;;;21.33;21.33;;;;;-146.37;100.00;59337.28;5021149;28;28008;-82
2023/01/18 03:14:49;;;;;;;;;26.67;22.33;;;;;-146.37;100.00;59337.28;5039786;28;28561;-82
2023/01/18 03:17:17;;;;;;;;;23.33;20.00;;;;;-146.37;100.00;59337.28;5039601;28;28624;-82
2023/01/18 03:20:06;;;;;;;;;19.33;19.00;;;;;-146.37;100.00;59337.28;5039904;28;28457;-82
2023/01/18 03:25:24;;;;;;;;;23.00;22.00;;;;;-146.37;100.00;59337.28;5023998;28;28840;-81
2023/01/18 03:33:43;;;;;;;;;24.33;22.00;;;;;-146.37;100.00;59337.28;5038765;28;28485;-81
2023/01/18 03:36:23;;;;;;;;;26.33;25.33;;;;;-146.37;100.00;59337.28;5018492;28;30747;-82
2023/01/18 03:38:56;;;;;;;;;17.67;15.33;;;;;-146.37;100.00;59337.28;5037897;28;28434;-80
2023/01/18 03:41:26;;;;;;;;;24.33;23.67;;;;;-146.37;100.00;59337.28;5019708;28;28380;-81
2023/01/18 03:43:55;;;;;;;;;23.00;21.33;;;;;-146.37;100.00;59337.28;5038480;28;28809;-80
2023/01/18 03:46:22;;;;;;;;;29.67;25.33;;;;;-146.37;100.00;59337.28;5038560;28;28059;-81
2023/01/18 03:48:48;;;;;;;;;23.00;21.00;;;;;-146.37;100.00;59337.28;5048933;28;28626;-81
2023/01/18 03:52:07;;;;;;;;;24.00;23.00;;;;;-146.37;100.00;59337.28;5037157;28;28912;-80
2023/01/18 03:55:01;;;;;;;;;25.00;21.00;;;;;-146.37;100.00;59337.28;4996441;28;28540;-81
2023/01/18 03:57:58;;;;;;;;;20.33;15.67;;;;;-146.37;100.00;59337.28;4983535;28;30245;-81
2023/01/18 04:00:24;;;;;;;;;24.00;21.67;;;;;-146.37;100.00;59337.28;4995793;28;28514;-81
2023/01/18 04:02:50;;;;;;;;;25.33;23.33;;;;;-146.37;100.00;59337.28;4993098;28;27940;-81
2023/01/18 04:05:16;;;;;;;;;27.00;25.00;;;;;-146.37;100.00;59337.28;4977414;28;27884;-81
2023/01/18 04:07:42;;;;;;;;;22.67;19.00;;;;;-146.37;100.00;59337.28;4976157;28;30937;-81
2023/01/18 04:10:08;;;;;;;;;23.67;19.67;;;;;-146.37;100.00;59337.28;4977667;28;28602;-81
2023/01/18 04:12:34;;;;;;;;;22.67;20.67;;;;;-146.37;100.00;59337.28;4977819;28;28465;-81
2023/01/18 04:15:00;;;;;;;;;23.67;23.67;;;;;-146.37;100.00;59337.28;4976782;28;28509;-81
2023/01/18 04:17:26;;;;;;;;;25.00;21.33;;;;;-146.37;100.00;59337.28;4976165;28;30057;-82
2023/01/18 04:19:52;;;;;;;;;26.00;21.33;;;;;-146.37;100.00;59337.28;4977793;28;28779;-81
2023/01/18 04:22:17;;;;;;;;;22.33;22.33;;;;;-146.37;100.00;59337.28;4961015;28;28034;-82
2023/01/18 04:24:43;;;;;;;;;16.33;14.00;;;;;-146.37;100.00;59337.28;4961115;28;27966;-82
2023/01/18 04:27:08;;;;;;;;;27.00;22.33;;;;;-146.37;100.00;59337.28;4977398;28;30097;-81
2023/01/18 04:29:34;;;;;;;;;20.67;19.00;;;;;-146.37;100.00;59337.28;5031554;28;28450;-81
2023/01/18 04:31:59;;;;;;;;;19.00;17.00;;;;;-146.37;100.00;59337.28;5037968;28;27880;-81
2023/01/18 04:34:25;;;;;;;;;20.33;19.00;;;;;-146.37;100.00;59337.28;5037982;28;28461;-80
2023/01/18 04:36:57;;;;;;;;;18.00;18.00;;;;;-146.37;100.00;59337.28;5018219;28;29716;-81
2023/01/18 04:39:22;;;;;;;;;24.67;24.33;;;;;-146.37;100.00;59337.28;5037797;28;28500;-81
2023/01/18 04:41:48;;;;;;;;;22.00;20.33;;;;;-146.37;100.00;59337.28;5038612;28;28371;-81
2023/01/18 04:44:19;;;;;;;;;21.00;19.67;;;;;-146.37;100.00;59337.28;5020605;28;27962;-81
2023/01/18 04:46:46;;;;;;;;;18.67;15.00;;;;;-146.37;100.00;59337.28;5021037;28;29786;-81
2023/01/18 04:49:14;;;;;;;;;25.67;20.33;;;;;-146.37;100.00;59337.28;5037982;28;27959;-81
2023/01/18 04:51:41;;;;;;;;;21.67;19.00;;;;;-146.37;100.00;59337.28;5037246;28;28506;-81
2023/01/18 04:54:07;;;;;;;;;21.00;19.33;;;;;-146.37;100.00;59337.28;5038312;28;28562;-81
2023/01/18 04:59:54;;;;;;;;;18.67;18.67;;;;;-146.37;100.00;59337.28;5038044;28;28481;-81
2023/01/18 05:02:19;;;;;;;;;21.67;20.33;;;;;-146.37;100.00;59337.28;5036740;28;28558;-82
2023/01/18 05:04:45;;;;;;;;;19.00;19.00;;;;;-146.37;100.00;59337.28;5037609;28;27887;-81
2023/01/18 05:07:10;;;;;;;;;22.33;21.33;;;;;-146.37;100.00;59337.28;5037583;28;28414;-81
2023/01/18 05:09:37;;;;;;;;;25.33;23.67;;;;;-146.37;100.00;59337.28;5038021;28;28603;-81
2023/01/18 05:12:02;;;;;;;;;25.00;19.67;;;;;-146.37;100.00;59337.28;5036705;28;28603;-81
2023/01/18 05:14:28;;;;;;;;;23.33;22.00;;;;;-146.37;100.00;59337.28;5036107;28;27840;-81
2023/01/18 05:16:53;;;;;;;;;21.67;20.33;;;;;-146.37;100.00;59337.28;5036935;28;29700;-81
2023/01/18 05:19:19;;;;;;;;;19.67;18.67;;;;;-146.37;100.00;59337.28;5039213;28;28564;-82
2023/01/18 05:21:45;;;;;;;;;19.67;18.00;;;;;-146.37;100.00;59337.28;5037382;28;27858;-82
2023/01/18 05:24:10;;;;;;;;;23.67;19.67;;;;;-146.37;100.00;59337.28;5037844;28;28419;-82
2023/01/18 05:26:35;;;;;;;;;31.67;24.33;;;;;-146.37;100.00;59337.28;5037872;28;28789;-81
2023/01/18 05:29:01;;;;;;;;;21.00;20.00;;;;;-146.37;100.00;59337.28;5037977;28;28941;-82
2023/01/18 05:31:26;;;;;;;;;20.00;19.67;;;;;-146.37;100.00;59337.28;5038119;28;27922;-82
2023/01/18 05:33:52;;;;;;;;;19.00;16.00;;;;;-146.37;100.00;59337.28;5038467;28;28473;-81
2023/01/18 05:36:17;;;;;;;;;20.33;20.33;;;;;-146.37;100.00;59337.28;5037809;28;29978;-82
2023/01/18 05:38:42;;;;;;;;;25.67;21.00;;;;;-146.37;100.00;59337.28;5037198;28;29382;-81
2023/01/18 05:41:09;;;;;;;;;23.00;22.67;;;;;-146.37;100.00;59337.28;5036844;28;28522;-81
2023/01/18 05:43:34;;;;;;;;;19.33;17.33;;;;;-146.37;100.00;59337.28;5037619;28;27955;-82
2023/01/18 05:46:00;;;;;;;;;19.00;16.00;;;;;-146.37;100.00;59337.28;5038262;28;27991;-81
2023/01/18 05:48:25;;;;;;;;;19.33;19.33;;;;;-146.37;100.00;59337.28;5041724;28;28500;-82
2023/01/18 05:50:51;;;;;;;;;20.67;20.00;;;;;-146.37;100.00;59337.28;5039654;28;28450;-81
2023/01/18 05:53:20;;;;;;;;;25.33;22.00;;;;;-146.37;100.00;59337.28;5041543;28;27848;-81
2023/01/18 05:56:05;;;;;;;;;16.67;14.33;;;;;-146.37;100.00;59337.28;5039861;28;29746;-82
2023/01/18 05:58:31;;;;;;;;;20.67;17.33;;;;;-146.37;100.00;59337.28;5039254;28;28602;-81
2023/01/18 06:00:57;;;;;;;;;22.00;22.00;;;;;-146.37;100.00;59337.28;5042455;28;28461;-81
2023/01/18 06:03:27;;;;;;;;;24.67;23.00;;;;;-146.37;100.00;59337.28;5041587;28;28512;-82
2023/01/18 06:05:53;;;;;;;;;26.67;25.33;;;;;-146.37;100.00;59337.28;5042548;28;28669;-81
2023/01/18 06:08:19;;;;;;;;;25.67;24.33;;;;;-146.37;100.00;59337.28;5041240;28;28671;-81
2023/01/18 06:10:55;;;;;;;;;23.67;21.67;;;;;-146.37;100.00;59337.28;5037023;28;27961;-81
2023/01/18 06:13:22;;;;;;;;;26.33;23.67;;;;;-146.37;100.00;59337.28;5041918;28;28473;-81
2023/01/18 06:15:47;;;;;;;;;28.00;21.67;;;;;-146.37;100.00;59337.28;5038963;28;29811;-82
2023/01/18 06:18:14;;;;;;;;;16.67;16.67;;;;;-146.37;100.00;59337.28;5039309;28;28498;-83
2023/01/18 06:20:39;;;;;;;;;22.67;20.00;;;;;-146.37;100.00;59337.28;5040491;28;28533;-82
2023/01/18 06:23:05;;;;;;;;;16.67;15.00;;;;;-146.37;100.00;59337.28;5040131;28;27805;-81
2023/01/18 06:25:30;;;;;;;;;20.67;19.33;;;;;-146.37;100.00;59337.28;5038231;28;29817;-82
2023/01/18 06:27:55;;;;;;;;;25.33;21.67;;;;;-146.37;100.00;59337.28;5022387;28;28461;-81
2023/01/18 06:30:22;;;;;;;;;16.00;16.00;;;;;-146.37;100.00;59337.28;5023011;28;28495;-81
2023/01/18 06:32:48;;;;;;;;;25.33;22.00;;;;;-146.37;100.00;59337.28;5039080;28;28058;-81
2023/01/18 06:35:14;;;;;;;;;19.33;19.00;;;;;-146.37;100.00;59337.28;5039610;28;28736;-81
2023/01/18 06:37:39;;;;;;;;;24.00;21.33;;;;;-146.37;100.00;59337.28;5021853;28;28758;-82
2023/01/18 06:40:05;;;;;;;;;22.00;22.00;;;;;-146.37;100.00;59337.28;5021327;28;28494;-82
2023/01/18 06:42:31;;;;;;;;;23.00;18.33;;;;;-146.37;100.00;59337.28;5022332;28;28538;-82
2023/01/18 06:44:56;;;;;;;;;22.67;22.67;;;;;-146.37;100.00;59337.28;5022882;28;29865;-81
2023/01/18 06:47:21;;;;;;;;;21.33;19.67;;;;;-146.37;100.00;59337.28;5025432;28;28966;-82
2023/01/18 06:49:47;;;;;;;;;22.00;19.00;;;;;-146.37;100.00;59337.28;5042649;28;28559;-81
2023/01/18 06:52:14;;;;;;;;;21.00;16.00;;;;;-146.37;100.00;59337.28;5042486;28;28491;-82
2023/01/18 06:54:39;;;;;;;;;22.00;19.67;;;;;-146.37;100.00;59337.28;5043736;28;28447;-81
2023/01/18 06:57:04;;;;;;;;;22.00;18.33;;;;;-146.37;100.00;59337.28;5039121;28;33308;-82
2023/01/18 06:59:30;;;;;;;;;22.00;20.00;;;;;-146.37;100.00;59337.28;5039852;28;28478;-81
2023/01/18 07:01:55;;;;;;;;;28.00;26.00;;;;;-146.37;100.00;59337.28;5040874;28;28609;-81
2023/01/18 07:04:20;;;;;;;;;22.00;18.00;;;;;-146.37;100.00;59337.28;5023471;28;31179;-81
2023/01/18 07:06:46;;;;;;;;;23.67;22.33;;;;;-146.37;100.00;59337.28;5041008;28;27984;-81
2023/01/18 07:09:12;;;;;;;;;23.33;22.33;;;;;-146.37;100.00;59337.28;5042303;28;28426;-81
2023/01/18 07:11:42;;;;;;;;;22.67;20.00;;;;;-146.37;100.00;59337.28;5022812;28;28447;-82
2023/01/18 07:14:10;;;;;;;;;23.67;23.00;;;;;-146.37;100.00;59337.28;5022234;28;30025;-83
2023/01/18 07:16:36;;;;;;;;;18.67;18.00;;;;;-146.37;100.00;59337.28;5041334;28;27821;-82
2023/01/18 07:19:02;;;;;;;;;20.00;19.67;;;;;-146.37;100.00;59337.28;5023479;28;28412;-82
2023/01/18 07:21:29;;;;;;;;;22.33;19.00;;;;;-146.37;100.00;59337.28;5024382;28;28529;-83
2023/01/18 07:23:56;;;;;;;;;24.00;22.33;;;;;-146.37;100.00;59337.28;5021933;28;31039;-83
2023/01/18 07:26:22;;;;;;;;;31.00;28.67;;;;;-146.37;100.00;59337.28;5041758;28;28335;-83
2023/01/18 07:28:47;;;;;;;;;24.67;24.67;;;;;-146.37;100.00;59337.28;5023065;28;28550;-83
2023/01/18 07:31:13;;;;;;;;;32.00;28.67;;;;;-146.37;100.00;59337.28;5022424;28;28448;-83
2023/01/18 07:33:39;;;;;;;;;23.67;23.67;;;;;-146.37;100.00;59337.28;5025233;28;30921;-83
2023/01/18 07:36:06;;;;;;;;;42.00;32.67;;;;;-146.37;100.00;59337.28;5026477;28;28513;-84
2023/01/18 07:38:32;;;;;;;;;36.00;35.33;;;;;-146.37;100.00;59337.28;5041078;28;29679;-83
2023/01/18 07:41:01;;;;;;;;;29.33;24.67;;;;;-146.37;100.00;59337.28;5041525;28;28340;-84
2023/01/18 07:43:27;;;;;;;;;30.33;29.00;;;;;-146.37;100.00;59337.28;5023060;28;30905;-83
2023/01/18 07:45:57;;;;;;;;;36.00;33.67;;;;;-146.37;100.00;59337.28;5042697;28;28447;-83
2023/01/18 07:48:24;;;;;;;;;29.00;25.67;;;;;-146.37;100.00;59337.28;5042978;28;29006;-83
2023/01/18 07:50:55;;;;;;;;;39.33;30.33;;;;;-146.37;100.00;59337.28;5023757;28;33499;-83
2023/01/18 07:53:24;;;;;;;;;31.33;31.33;;;;;-146.37;100.00;59337.28;5040777;28;29705;-83
2023/01/18 07:55:50;;;;;;;;;25.00;23.67;;;;;-146.37;100.00;59337.28;5022896;28;33255;-83
2023/01/18 07:58:17;;;;;;;;;38.00;31.00;;;;;-146.37;100.00;59337.28;5024647;28;31916;-83
2023/01/18 08:00:42;;;;;;;;;47.25;43.00;;;;;-146.37;100.00;59337.28;5041683;28;27932;-83
2023/01/18 08:03:16;;;;;;;;;45.67;41.67;;;;;-146.37;100.00;59337.28;5044219;28;28516;-83
2023/01/18 08:05:43;;;;;;;;;44.00;35.33;;;;;-146.37;100.00;59337.28;5039924;28;28840;-83
2023/01/18 08:08:09;;;;;;;;;36.33;33.33;;;;;-146.37;100.00;59337.28;5039653;28;28493;-83
2023/01/18 08:10:35;;;;;;;;;29.67;29.67;;;;;-146.37;100.00;59337.28;5040557;28;32076;-83
2023/01/18 08:13:01;;;;;;;;;40.67;39.33;;;;;-146.37;100.00;59337.28;5040370;28;28228;-83
2023/01/18 08:15:26;;;;;;;;;34.33;34.33;;;;;-146.37;100.00;59337.28;5041152;28;27836;-84
2023/01/18 08:17:54;;;;;;;;;30.67;25.00;;;;;-146.37;100.00;59337.28;5040147;28;28333;-83
2023/01/18 08:20:20;;;;;;;;;39.67;37.33;;;;;-146.37;100.00;59337.28;5023564;28;28451;-83
2023/01/18 08:22:46;;;;;;;;;39.67;37.33;;;;;-146.37;100.00;59337.28;5040124;28;32240;-84
2023/01/18 08:25:16;;;;;;;;;44.75;42.25;;;;;-146.37;100.00;59337.28;5041430;28;28555;-84
2023/01/18 08:27:46;;;;;;;;;51.75;45.00;;;;;-146.37;100.00;59337.28;5043688;28;28493;-83
2023/01/18 08:30:12;;;;;;;;;68.50;54.50;;;;;-146.37;100.00;59337.28;5043403;28;40615;-84
2023/01/18 08:32:38;;;;;;;;;62.25;52.25;;;;;-146.37;100.00;59337.28;5042885;28;11620;-84
2023/01/18 08:35:03;;;;;;;;;59.25;47.00;;;;;-146.37;100.00;59337.28;5028058;28;8846;-83
2023/01/18 08:37:30;;;;;;;;;57.75;48.25;;;;;-146.37;100.00;59337.28;5048005;28;8847;-83
2023/01/18 08:39:57;;;;;;;;;38.00;38.00;;;;;-146.37;100.00;59337.28;5052194;28;32450;-84
2023/01/18 08:42:23;;;;;;;;;56.75;47.50;;;;;-146.37;100.00;59337.28;5033752;28;32885;-83
2023/01/18 08:44:55;;;;;;;;;45.00;36.00;;;;;-146.37;100.00;59337.28;5060309;28;11589;-83
2023/01/18 08:47:23;;;;;;;;;40.75;37.00;;;;;-146.37;100.00;59337.28;5065322;28;9638;-84
2023/01/18 08:49:50;;;;;;;;;41.33;36.67;;;;;-146.37;100.00;59337.28;5053362;28;9548;-83
2023/01/18 08:52:15;;;;;;;;;43.00;37.00;;;;;-146.37;100.00;59337.28;5066323;28;9473;-84
2023/01/18 08:54:41;;;;;;;;;34.00;32.33;;;;;-146.37;100.00;59337.28;5039414;28;27975;-84
2023/01/18 08:57:08;;;;;;;;;38.33;35.67;;;;;-146.37;100.00;59337.28;5031690;28;27971;-84
2023/01/18 08:59:33;;;;;;;;;41.00;34.33;;;;;-146.37;100.00;59337.28;5046280;28;8786;-83
2023/01/18 09:01:59;;;;;;;;;42.33;36.67;;;;;-146.37;100.00;59337.28;5066118;28;9291;-84
2023/01/18 09:04:26;;;;;;;;;37.00;32.67;;;;;-146.37;100.00;59337.28;5051141;28;30863;-85
2023/01/18 09:06:52;;;;;;;;;35.00;35.00;;;;;-146.37;100.00;59337.28;5028973;28;32682;-84
2023/01/18 09:09:17;;;;;;;;;33.00;32.00;;;;;-146.37;100.00;59337.28;5045999;28;28284;-86
2023/01/18 09:11:58;;;;;;;;;39.00;35.67;;;;;-146.37;100.00;59337.28;5043591;28;33783;-85
2023/01/18 09:14:24;;;;;;;;;33.33;32.67;;;;;-146.37;100.00;59337.28;5024612;28;32493;-84
2023/01/18 09:16:49;;;;;;;;;26.33;26.33;;;;;-146.37;100.00;59337.28;5035505;28;30596;-85
2023/01/18 09:19:17;;;;;;;;;27.00;23.00;;;;;-146.37;100.00;59337.28;5044980;28;9710;-84
2023/01/18 09:21:45;;;;;;;;;30.67;27.67;;;;;-146.37;100.00;59337.28;5064630;28;8783;-83
2023/01/18 09:24:16;;;;;;;;;33.00;29.00;;;;;-146.37;100.00;59337.28;5071101;28;8968;-83
2023/01/18 09:26:49;;;;;;;;;30.00;26.33;;;;;-146.37;100.00;59337.28;5065624;28;9000;-85
2023/01/18 09:29:15;;;;;;;;;30.00;28.00;;;;;-146.37;100.00;59337.28;5041437;28;28208;-86
2023/01/18 09:31:48;;;;;;;;;25.33;25.33;;;;;-146.37;100.00;59337.28;5046194;28;38326;-85
2023/01/18 09:34:20;;;;;;;;;15.00;13.67;;;;;-146.37;100.00;59337.28;5032573;28;33128;-86
2023/01/18 09:40:17;;;;;;;;;22.50;20.75;;;;;-146.37;100.00;59337.28;5058866;28;8883;-84
2023/01/18 09:45:57;;;;;;;;;23.25;23.00;;;;;-146.37;100.00;59337.28;5054941;28;28592;-85
2023/01/18 09:48:53;;;;;;;;;26.33;24.33;;;;;-146.37;100.00;59337.28;5030645;28;29327;-84
2023/01/18 09:51:22;;;;;;;;;24.67;19.33;;;;;-146.37;100.00;59337.28;5036195;28;28556;-84
2023/01/18 09:54:18;;;;;;;;;23.00;20.00;;;;;-146.37;100.00;59337.28;5047444;28;34781;-85
2023/01/18 09:56:56;;;;;;;;;22.00;20.00;;;;;-146.37;100.00;59337.28;5049940;28;36181;-85
2023/01/18 10:00:16;;;;;;;;;20.00;20.00;;;;;-146.37;100.00;59337.28;5046090;28;34189;-84
2023/01/18 10:02:48;;;;;;;;;25.33;20.00;;;;;-146.37;100.00;59337.28;5020019;28;36293;-82
2023/01/18 10:05:30;;;;;;;;;;;;;;;;;;;;;
2023/01/18 10:08:35;;;;;;;;;23.75;23.75;;;;;-146.37;100.00;59337.28;5067203;28;35392;-83
2023/01/18 10:11:45;;;;;;;;;17.75;16.50;;;;;-146.37;100.00;59337.28;5084324;28;8774;-83
2023/01/18 10:14:58;;;;;;;;;;;;;;;;;;;;;
2023/01/18 10:17:44;;;;;;;;;27.25;22.50;;;;;-146.37;100.00;59337.28;5034643;28;35853;-83
2023/01/18 10:20:34;;;;;;;;;20.33;20.33;;;;;-146.37;100.00;59337.28;5004568;28;28808;-84
2023/01/18 10:23:02;;;;;;;;;24.67;23.33;;;;;-146.37;100.00;59337.28;5029459;28;27853;-83
2023/01/18 10:25:53;;;;;;;;;23.67;21.33;;;;;-146.37;100.00;59337.28;5007138;28;28193;-83
2023/01/18 10:28:40;;;;;;;;;23.67;21.33;;;;;-146.37;100.00;59337.28;5021015;28;36438;-83
2023/01/18 10:31:38;;;;;;;;;25.33;24.00;;;;;-146.37;100.00;59337.28;5021663;28;29041;-83
2023/01/18 10:34:34;;;;;;;;;20.67;20.00;;;;;-146.37;100.00;59337.28;5022786;28;35556;-83
2023/01/18 10:37:34;;;;;;;;;24.00;23.67;;;;;-146.37;100.00;59337.28;5025950;28;34639;-83
2023/01/18 10:40:04;;;;;;;;;21.25;18.50;;;;;-146.37;100.00;59337.28;5013282;28;27853;-83
2023/01/18 10:42:43;;;;;;;;;13.67;12.00;;;;;-146.37;100.00;59337.28;5011781;28;28742;-83
2023/01/18 10:45:23;;;;;;;;;25.33;20.00;;;;;-146.37;100.00;59337.28;5000558;28;29586;-83
2023/01/18 10:47:51;;;;;;;;;12.67;11.33;;;;;-146.37;100.00;59337.28;5000028;28;32515;-82
2023/01/18 10:50:21;;;;;;;;;20.33;13.67;;;;;-146.37;100.00;59337.28;5012724;28;31728;-82
2023/01/18 10:52:46;;;;;;;;;9.67;8.33;;;;;-146.37;100.00;59337.28;5006923;28;28850;-83
2023/01/18 10:58:50;;;;;;;;;13.25;12.25;;;;;-146.37;100.00;59337.28;5047355;28;8808;-82
2023/01/18 11:01:21;;;;;;;;;13.25;10.00;;;;;-146.37;100.00;59337.28;5040488;28;8826;-83
2023/01/18 11:03:53;;;;;;;;;7.00;6.00;;;;;-146.37;100.00;59337.28;5059742;28;8777;-82
2023/01/18 11:06:29;;;;;;;;;12.75;10.25;;;;;-146.37;100.00;59337.28;5063354;28;8765;-82
2023/01/18 11:08:57;;;;;;;;;15.50;13.00;;;;;-146.37;100.00;59337.28;5048973;28;8805;-82
2023/01/18 11:14:30;;;;;;;;;10.50;10.00;;;;;-146.37;100.00;59337.28;5063894;28;9575;-83
2023/01/18 11:17:01;;;;;;;;;15.25;15.25;;;;;-146.37;100.00;59337.28;5045949;28;9430;-83
2023/01/18 11:19:28;;;;;;;;;20.75;19.25;;;;;-146.37;100.00;59337.28;5044524;28;8737;-83
2023/01/18 11:21:55;;;;;;;;;18.50;17.00;;;;;-146.37;100.00;59337.28;5044906;28;8717;-83
2023/01/18 11:24:28;;;;;;;;;21.00;15.25;;;;;-146.37;100.00;59337.28;5060744;28;8895;-82
2023/01/18 11:26:59;;;;;;;;;12.00;10.75;;;;;-146.37;100.00;59337.28;5042229;28;8753;-83
2023/01/18 11:29:45;;;;;;;;;8.50;5.50;;;;;-146.37;100.00;59337.28;5033726;28;29707;-82
2023/01/18 11:32:29;;;;;;;;;8.33;8.33;;;;;-146.37;100.00;59337.28;5028842;28;37010;-83
2023/01/18 11:35:33;;;;;;;;;9.00;9.00;;;;;-146.37;100.00;59337.28;5042104;28;33652;-83
2023/01/18 11:38:01;;;;;;;;;16.75;10.50;;;;;-146.37;100.00;59337.28;5060571;28;9996;-82
2023/01/18 11:40:34;;;;;;;;;15.00;13.50;;;;;-146.37;100.00;59337.28;5039421;28;8817;-82
2023/01/18 11:43:10;;;;;;;;;14.75;14.75;;;;;-146.37;100.00;59337.28;5060522;28;8741;-82
2023/01/18 11:45:49;;;;;;;;;9.50;9.00;;;;;-146.37;100.00;59337.28;5041356;28;8854;-82
2023/01/18 11:48:54;;;;;;;;;11.50;11.50;;;;;-146.37;100.00;59337.28;5045898;28;8741;-82
2023/01/18 11:51:39;;;;;;;;;10.00;9.50;;;;;-146.37;100.00;59337.28;5044305;28;8829;-83
2023/01/18 11:54:42;;;;;;;;;12.50;11.00;;;;;-146.37;100.00;59337.28;5038239;28;9141;-82
2023/01/18 11:57:11;;;;;;;;;7.00;7.00;;;;;-146.37;100.00;59337.28;4964785;28;8729;-83
2023/01/18 11:59:47;;;;;;;;;10.75;9.00;;;;;-146.37;100.00;59337.28;4984354;28;8815;-82
2023/01/18 12:06:46;;;;;;;;;7.25;6.75;;;;;-146.37;100.00;59337.28;4960530;28;8731;-85
2023/01/18 12:09:18;;;;;;;;;9.50;9.50;;;;;-146.37;100.00;59337.28;4911211;29;8745;-86
2023/01/18 12:11:52;;;;;;;;;10.00;8.75;;;;;-146.37;100.00;59337.28;4905496;29;9635;-81